Allardt, Tennessee
Current Conditions -  °F | °C
As of 7:53 AM on Thursday 18 Dec 2014 (Local Time) from KCSV Reporting Station
Haze Haze  
Wind Chill: 26°   Ceiling: Unl
Heat Index: 33°   Visibility: 5mi
Dew Point: 29°   Wind: 8mph
Humidity: 85%   Direction: 50°NE
Pressure: 30.16"   Gusts: NA
Location:  36.38°N, 84.88°W
Report Text: KCSV 181353Z AUTO 05007KT 5SM BR FEW044 SCT110 01/M02 A3016 RMK AO2 SLP225 T00061017
Loading
Personal Weather Stations






























Interactive Weather Map New forecast layout! Learn more

10-Day Weather Forecast

Advertisements
Track Severe Weather on mobile